sensor_id;sensor_type;location;lat;lon;timestamp;pressure;altitude;pressure_sealevel;temperature;humidity
8334;BME280;4204;43.004;23.052;2024-02-26T00:00:30;93387.13;;;3.77;84.33
8334;BME280;4204;43.004;23.052;2024-02-26T00:02:56;93395.13;;;3.74;83.75
8334;BME280;4204;43.004;23.052;2024-02-26T00:05:21;93398.84;;;3.64;82.90
8334;BME280;4204;43.004;23.052;2024-02-26T00:07:47;93406.50;;;3.64;83.92
8334;BME280;4204;43.004;23.052;2024-02-26T00:10:13;93396.81;;;3.59;84.87
8334;BME280;4204;43.004;23.052;2024-02-26T00:12:39;93397.09;;;3.64;85.56
8334;BME280;4204;43.004;23.052;2024-02-26T00:15:06;93403.91;;;3.49;84.92
8334;BME280;4204;43.004;23.052;2024-02-26T00:17:31;93396.53;;;3.31;85.68
8334;BME280;4204;43.004;23.052;2024-02-26T00:19:57;93401.41;;;3.41;87.73
8334;BME280;4204;43.004;23.052;2024-02-26T00:22:22;93399.25;;;3.53;86.94
8334;BME280;4204;43.004;23.052;2024-02-26T00:24:48;93403.50;;;3.60;86.39
8334;BME280;4204;43.004;23.052;2024-02-26T00:27:13;93400.59;;;3.63;87.20
8334;BME280;4204;43.004;23.052;2024-02-26T00:29:38;93388.50;;;3.65;86.88
8334;BME280;4204;43.004;23.052;2024-02-26T00:32:04;93385.31;;;3.63;87.58
8334;BME280;4204;43.004;23.052;2024-02-26T00:34:30;93390.94;;;3.59;86.53
8334;BME280;4204;43.004;23.052;2024-02-26T00:36:56;93379.03;;;3.51;87.48
8334;BME280;4204;43.004;23.052;2024-02-26T00:39:21;93380.47;;;3.54;86.59
8334;BME280;4204;43.004;23.052;2024-02-26T00:41:47;93385.78;;;3.44;88.16
8334;BME280;4204;43.004;23.052;2024-02-26T00:44:12;93380.69;;;3.44;88.77
8334;BME280;4204;43.004;23.052;2024-02-26T00:46:37;93378.16;;;3.44;88.81
8334;BME280;4204;43.004;23.052;2024-02-26T00:49:03;93378.75;;;3.46;88.65
8334;BME280;4204;43.004;23.052;2024-02-26T00:51:28;93366.75;;;3.55;88.73
8334;BME280;4204;43.004;23.052;2024-02-26T00:53:54;93367.53;;;3.78;89.28
8334;BME280;4204;43.004;23.052;2024-02-26T00:56:21;93366.59;;;3.94;89.25
8334;BME280;4204;43.004;23.052;2024-02-26T00:58:46;93357.34;;;3.93;85.91
8334;BME280;4204;43.004;23.052;2024-02-26T01:01:12;93364.47;;;3.82;86.17
8334;BME280;4204;43.004;23.052;2024-02-26T01:03:37;93363.31;;;3.85;87.04
8334;BME280;4204;43.004;23.052;2024-02-26T01:06:03;93354.00;;;3.92;85.69
8334;BME280;4204;43.004;23.052;2024-02-26T01:08:28;93352.25;;;3.93;85.73
8334;BME280;4204;43.004;23.052;2024-02-26T01:10:54;93325.97;;;3.92;86.02
8334;BME280;4204;43.004;23.052;2024-02-26T01:13:19;93335.91;;;4.02;86.13
8334;BME280;4204;43.004;23.052;2024-02-26T01:15:44;93342.69;;;4.09;84.28
8334;BME280;4204;43.004;23.052;2024-02-26T01:18:10;93346.72;;;4.19;84.76
8334;BME280;4204;43.004;23.052;2024-02-26T01:20:35;93341.28;;;4.22;83.61
8334;BME280;4204;43.004;23.052;2024-02-26T01:23:01;93343.13;;;4.28;85.00
8334;BME280;4204;43.004;23.052;2024-02-26T01:25:27;93337.91;;;4.36;85.44
8334;BME280;4204;43.004;23.052;2024-02-26T01:27:53;93330.09;;;4.37;86.04
8334;BME280;4204;43.004;23.052;2024-02-26T01:30:18;93335.91;;;4.46;87.36
8334;BME280;4204;43.004;23.052;2024-02-26T01:32:44;93330.72;;;4.54;87.28
8334;BME280;4204;43.004;23.052;2024-02-26T01:35:09;93340.78;;;4.77;88.41
8334;BME280;4204;43.004;23.052;2024-02-26T01:37:37;93340.19;;;4.96;89.94
8334;BME280;4204;43.004;23.052;2024-02-26T01:40:03;93336.25;;;4.94;87.71
8334;BME280;4204;43.004;23.052;2024-02-26T01:42:30;93341.16;;;4.95;86.34
8334;BME280;4204;43.004;23.052;2024-02-26T01:44:56;93338.50;;;5.03;86.25
8334;BME280;4204;43.004;23.052;2024-02-26T01:47:22;93334.63;;;5.07;87.38
8334;BME280;4204;43.004;23.052;2024-02-26T01:49:48;93341.19;;;5.17;87.23
8334;BME280;4204;43.004;23.052;2024-02-26T01:52:14;93338.53;;;5.25;87.29
8334;BME280;4204;43.004;23.052;2024-02-26T01:54:40;93330.75;;;5.33;87.14
8334;BME280;4204;43.004;23.052;2024-02-26T01:57:06;93333.59;;;5.45;87.11
8334;BME280;4204;43.004;23.052;2024-02-26T01:59:33;93335.66;;;5.56;87.11
8334;BME280;4204;43.004;23.052;2024-02-26T02:02:01;93328.34;;;5.53;86.09
8334;BME280;4204;43.004;23.052;2024-02-26T02:04:29;93325.63;;;5.54;85.35
8334;BME280;4204;43.004;23.052;2024-02-26T02:06:55;93328.84;;;5.41;84.12
8334;BME280;4204;43.004;23.052;2024-02-26T02:09:22;93333.91;;;5.35;83.97
8334;BME280;4204;43.004;23.052;2024-02-26T02:11:48;93342.00;;;5.38;84.30
8334;BME280;4204;43.004;23.052;2024-02-26T02:14:14;93326.47;;;5.40;84.68
8334;BME280;4204;43.004;23.052;2024-02-26T02:16:39;93338.41;;;5.33;84.29
8334;BME280;4204;43.004;23.052;2024-02-26T02:19:05;93333.00;;;5.21;84.08
8334;BME280;4204;43.004;23.052;2024-02-26T02:21:30;93323.38;;;5.02;84.31
8334;BME280;4204;43.004;23.052;2024-02-26T02:23:56;93334.84;;;5.13;86.22
8334;BME280;4204;43.004;23.052;2024-02-26T02:26:21;93325.66;;;4.97;84.46
8334;BME280;4204;43.004;23.052;2024-02-26T02:28:47;93327.00;;;4.93;85.09
8334;BME280;4204;43.004;23.052;2024-02-26T02:31:14;93322.69;;;4.93;85.37
8334;BME280;4204;43.004;23.052;2024-02-26T02:33:40;93318.97;;;4.96;84.59
8334;BME280;4204;43.004;23.052;2024-02-26T02:36:06;93333.09;;;4.92;84.50
8334;BME280;4204;43.004;23.052;2024-02-26T02:38:35;93334.28;;;4.74;84.92
8334;BME280;4204;43.004;23.052;2024-02-26T02:41:01;93333.47;;;4.74;85.25
8334;BME280;4204;43.004;23.052;2024-02-26T02:43:26;93335.59;;;4.70;86.39
8334;BME280;4204;43.004;23.052;2024-02-26T02:45:51;93320.75;;;4.59;85.85
8334;BME280;4204;43.004;23.052;2024-02-26T02:48:17;93340.16;;;4.75;85.90
8334;BME280;4204;43.004;23.052;2024-02-26T02:50:42;93335.06;;;4.75;85.67
8334;BME280;4204;43.004;23.052;2024-02-26T02:53:07;93343.09;;;4.72;85.52
8334;BME280;4204;43.004;23.052;2024-02-26T02:55:34;93335.72;;;4.62;85.96
8334;BME280;4204;43.004;23.052;2024-02-26T02:57:59;93328.84;;;4.63;86.48
8334;BME280;4204;43.004;23.052;2024-02-26T03:00:25;93332.28;;;4.55;86.59
8334;BME280;4204;43.004;23.052;2024-02-26T03:02:50;93342.69;;;4.54;86.10
8334;BME280;4204;43.004;23.052;2024-02-26T03:05:16;93338.09;;;4.49;86.10
8334;BME280;4204;43.004;23.052;2024-02-26T03:07:41;93344.88;;;4.57;86.87
8334;BME280;4204;43.004;23.052;2024-02-26T03:10:07;93327.78;;;4.72;89.17
8334;BME280;4204;43.004;23.052;2024-02-26T03:12:34;93329.09;;;4.68;88.05
8334;BME280;4204;43.004;23.052;2024-02-26T03:14:59;93324.41;;;4.71;88.27
8334;BME280;4204;43.004;23.052;2024-02-26T03:17:28;93330.38;;;4.78;87.65
8334;BME280;4204;43.004;23.052;2024-02-26T03:19:53;93331.84;;;4.88;87.30
8334;BME280;4204;43.004;23.052;2024-02-26T03:22:19;93332.09;;;4.93;87.18
8334;BME280;4204;43.004;23.052;2024-02-26T03:24:45;93317.81;;;4.98;86.20
8334;BME280;4204;43.004;23.052;2024-02-26T03:27:11;93309.66;;;4.88;85.85
8334;BME280;4204;43.004;23.052;2024-02-26T03:29:37;93319.03;;;4.81;85.07
8334;BME280;4204;43.004;23.052;2024-02-26T03:32:03;93319.84;;;4.67;85.61
8334;BME280;4204;43.004;23.052;2024-02-26T03:34:29;93311.13;;;4.76;86.67
8334;BME280;4204;43.004;23.052;2024-02-26T03:36:56;93310.03;;;4.85;86.94
8334;BME280;4204;43.004;23.052;2024-02-26T03:39:21;93313.69;;;4.97;87.12
8334;BME280;4204;43.004;23.052;2024-02-26T03:41:47;93313.69;;;4.97;86.05
8334;BME280;4204;43.004;23.052;2024-02-26T03:44:13;93310.88;;;4.92;85.79
8334;BME280;4204;43.004;23.052;2024-02-26T03:46:38;93326.75;;;4.88;85.31
8334;BME280;4204;43.004;23.052;2024-02-26T03:49:04;93323.59;;;4.86;85.09
8334;BME280;4204;43.004;23.052;2024-02-26T03:51:29;93320.25;;;4.85;85.51
8334;BME280;4204;43.004;23.052;2024-02-26T03:53:57;93315.06;;;4.78;85.14
8334;BME280;4204;43.004;23.052;2024-02-26T03:56:23;93319.88;;;4.88;85.18
8334;BME280;4204;43.004;23.052;2024-02-26T03:58:49;93320.75;;;4.95;85.18
8334;BME280;4204;43.004;23.052;2024-02-26T04:01:14;93314.84;;;4.95;85.90
8334;BME280;4204;43.004;23.052;2024-02-26T04:03:40;93313.94;;;5.02;86.41
8334;BME280;4204;43.004;23.052;2024-02-26T04:06:08;93318.38;;;4.94;84.52
8334;BME280;4204;43.004;23.052;2024-02-26T04:08:34;93320.69;;;4.89;84.52
8334;BME280;4204;43.004;23.052;2024-02-26T04:11:00;93317.69;;;4.85;84.98
8334;BME280;4204;43.004;23.052;2024-02-26T04:13:25;93325.59;;;4.90;85.35
8334;BME280;4204;43.004;23.052;2024-02-26T04:15:51;93322.06;;;4.70;84.71
8334;BME280;4204;43.004;23.052;2024-02-26T04:18:16;93311.22;;;4.68;87.72
8334;BME280;4204;43.004;23.052;2024-02-26T04:20:41;93317.38;;;4.73;86.78
8334;BME280;4204;43.004;23.052;2024-02-26T04:23:07;93313.41;;;4.71;86.04
8334;BME280;4204;43.004;23.052;2024-02-26T04:25:33;93310.44;;;4.67;86.49
8334;BME280;4204;43.004;23.052;2024-02-26T04:27:58;93314.38;;;4.70;86.28
8334;BME280;4204;43.004;23.052;2024-02-26T04:30:23;93321.06;;;4.71;84.55
8334;BME280;4204;43.004;23.052;2024-02-26T04:32:49;93325.75;;;4.67;85.17
8334;BME280;4204;43.004;23.052;2024-02-26T04:35:14;93313.06;;;4.74;85.30
8334;BME280;4204;43.004;23.052;2024-02-26T04:37:40;93324.84;;;4.75;84.81
8334;BME280;4204;43.004;23.052;2024-02-26T04:40:05;93321.38;;;4.61;84.71
8334;BME280;4204;43.004;23.052;2024-02-26T04:42:31;93312.41;;;4.51;86.10
8334;BME280;4204;43.004;23.052;2024-02-26T04:44:56;93318.91;;;4.38;86.06
8334;BME280;4204;43.004;23.052;2024-02-26T04:47:22;93310.75;;;4.28;85.07
8334;BME280;4204;43.004;23.052;2024-02-26T04:49:49;93317.31;;;4.37;87.08
8334;BME280;4204;43.004;23.052;2024-02-26T04:52:15;93314.59;;;4.39;87.41
8334;BME280;4204;43.004;23.052;2024-02-26T04:54:40;93314.34;;;4.49;86.01
8334;BME280;4204;43.004;23.052;2024-02-26T04:57:05;93310.50;;;4.74;86.65
8334;BME280;4204;43.004;23.052;2024-02-26T04:59:31;93308.81;;;4.81;84.77
8334;BME280;4204;43.004;23.052;2024-02-26T05:01:56;93308.09;;;4.87;84.53
8334;BME280;4204;43.004;23.052;2024-02-26T05:04:22;93312.03;;;4.90;83.94
8334;BME280;4204;43.004;23.052;2024-02-26T05:06:47;93310.81;;;4.86;83.58
8334;BME280;4204;43.004;23.052;2024-02-26T05:09:12;93330.03;;;4.82;82.69
8334;BME280;4204;43.004;23.052;2024-02-26T05:11:38;93325.81;;;4.74;82.87
8334;BME280;4204;43.004;23.052;2024-02-26T05:14:03;93327.88;;;4.64;82.59
8334;BME280;4204;43.004;23.052;2024-02-26T05:16:29;93323.56;;;4.64;83.26
8334;BME280;4204;43.004;23.052;2024-02-26T05:18:56;93318.81;;;4.61;83.68
8334;BME280;4204;43.004;23.052;2024-02-26T05:21:21;93332.63;;;4.67;86.28
8334;BME280;4204;43.004;23.052;2024-02-26T05:23:47;93328.53;;;4.87;87.57
8334;BME280;4204;43.004;23.052;2024-02-26T05:26:19;93327.50;;;5.03;88.98
8334;BME280;4204;43.004;23.052;2024-02-26T05:28:44;93332.28;;;4.91;88.20
8334;BME280;4204;43.004;23.052;2024-02-26T05:31:13;93332.91;;;4.93;87.42
8334;BME280;4204;43.004;23.052;2024-02-26T05:33:39;93336.44;;;4.92;87.09
8334;BME280;4204;43.004;23.052;2024-02-26T05:36:04;93336.56;;;5.05;87.95
8334;BME280;4204;43.004;23.052;2024-02-26T05:38:30;93334.38;;;5.02;86.56
8334;BME280;4204;43.004;23.052;2024-02-26T05:41:00;93331.28;;;5.07;86.42
8334;BME280;4204;43.004;23.052;2024-02-26T05:43:28;93339.78;;;5.14;87.63
8334;BME280;4204;43.004;23.052;2024-02-26T05:45:54;93336.06;;;5.17;87.46
8334;BME280;4204;43.004;23.052;2024-02-26T05:48:20;93333.88;;;5.14;87.30
8334;BME280;4204;43.004;23.052;2024-02-26T05:50:46;93336.53;;;5.20;87.35
8334;BME280;4204;43.004;23.052;2024-02-26T05:53:11;93344.06;;;5.28;86.95
8334;BME280;4204;43.004;23.052;2024-02-26T05:55:37;93344.69;;;5.30;86.20
8334;BME280;4204;43.004;23.052;2024-02-26T05:58:02;93349.06;;;5.36;86.46
8334;BME280;4204;43.004;23.052;2024-02-26T06:00:28;93352.66;;;5.42;86.65
8334;BME280;4204;43.004;23.052;2024-02-26T06:02:53;93347.13;;;5.38;86.43
8334;BME280;4204;43.004;23.052;2024-02-26T06:05:18;93353.00;;;5.39;85.88
8334;BME280;4204;43.004;23.052;2024-02-26T06:07:44;93353.19;;;5.37;86.21
8334;BME280;4204;43.004;23.052;2024-02-26T06:10:10;93355.31;;;5.34;87.45
8334;BME280;4204;43.004;23.052;2024-02-26T06:12:36;93358.84;;;5.33;87.22
8334;BME280;4204;43.004;23.052;2024-02-26T06:15:01;93356.31;;;5.33;86.89
8334;BME280;4204;43.004;23.052;2024-02-26T06:17:27;93370.72;;;5.40;87.66
8334;BME280;4204;43.004;23.052;2024-02-26T06:19:53;93362.50;;;5.45;87.50
8334;BME280;4204;43.004;23.052;2024-02-26T06:22:18;93361.22;;;5.56;87.81
8334;BME280;4204;43.004;23.052;2024-02-26T06:24:43;93365.03;;;5.66;86.92
8334;BME280;4204;43.004;23.052;2024-02-26T06:27:09;93369.06;;;5.75;86.99
8334;BME280;4204;43.004;23.052;2024-02-26T06:29:34;93372.63;;;5.81;87.38
8334;BME280;4204;43.004;23.052;2024-02-26T06:31:59;93370.75;;;5.90;86.97
8334;BME280;4204;43.004;23.052;2024-02-26T06:34:25;93384.41;;;5.97;87.44
8334;BME280;4204;43.004;23.052;2024-02-26T06:36:50;93380.31;;;6.02;87.18
8334;BME280;4204;43.004;23.052;2024-02-26T06:39:16;93373.28;;;6.11;87.25
8334;BME280;4204;43.004;23.052;2024-02-26T06:41:41;93373.91;;;6.13;87.81
8334;BME280;4204;43.004;23.052;2024-02-26T06:44:07;93381.66;;;6.26;87.50
8334;BME280;4204;43.004;23.052;2024-02-26T06:46:32;93376.19;;;6.36;87.32
8334;BME280;4204;43.004;23.052;2024-02-26T06:48:58;93379.78;;;6.42;86.67
8334;BME280;4204;43.004;23.052;2024-02-26T06:51:23;93378.84;;;6.49;86.40
8334;BME280;4204;43.004;23.052;2024-02-26T06:53:49;93378.88;;;6.56;86.49
8334;BME280;4204;43.004;23.052;2024-02-26T06:56:14;93378.50;;;6.65;86.73
8334;BME280;4204;43.004;23.052;2024-02-26T06:58:40;93389.81;;;6.78;86.11
8334;BME280;4204;43.004;23.052;2024-02-26T07:01:05;93392.63;;;6.89;84.23
8334;BME280;4204;43.004;23.052;2024-02-26T07:03:33;93383.59;;;6.93;83.91
8334;BME280;4204;43.004;23.052;2024-02-26T07:05:59;93388.56;;;7.08;83.27
8334;BME280;4204;43.004;23.052;2024-02-26T07:08:24;93400.41;;;7.16;82.81
8334;BME280;4204;43.004;23.052;2024-02-26T07:10:49;93394.50;;;7.22;82.61
8334;BME280;4204;43.004;23.052;2024-02-26T07:13:15;93386.06;;;7.28;81.56
8334;BME280;4204;43.004;23.052;2024-02-26T07:15:40;93388.63;;;7.34;81.91
8334;BME280;4204;43.004;23.052;2024-02-26T07:18:06;93387.50;;;7.44;81.20
8334;BME280;4204;43.004;23.052;2024-02-26T07:20:31;93391.25;;;7.54;81.18
8334;BME280;4204;43.004;23.052;2024-02-26T07:22:57;93389.69;;;7.60;80.22
8334;BME280;4204;43.004;23.052;2024-02-26T07:25:23;93391.06;;;7.69;80.48
8334;BME280;4204;43.004;23.052;2024-02-26T07:27:50;93389.09;;;7.78;81.35
8334;BME280;4204;43.004;23.052;2024-02-26T07:30:15;93396.41;;;7.87;79.42
8334;BME280;4204;43.004;23.052;2024-02-26T07:32:42;93398.78;;;7.95;80.55
8334;BME280;4204;43.004;23.052;2024-02-26T07:35:07;93393.06;;;8.00;77.62
8334;BME280;4204;43.004;23.052;2024-02-26T07:37:33;93392.25;;;8.13;78.23
8334;BME280;4204;43.004;23.052;2024-02-26T07:39:58;93400.00;;;8.19;77.47
8334;BME280;4204;43.004;23.052;2024-02-26T07:42:24;93393.06;;;8.26;76.93
8334;BME280;4204;43.004;23.052;2024-02-26T07:44:50;93390.09;;;8.29;76.78
8334;BME280;4204;43.004;23.052;2024-02-26T07:47:16;93393.06;;;8.40;75.95
8334;BME280;4204;43.004;23.052;2024-02-26T07:49:41;93402.16;;;8.49;75.38
8334;BME280;4204;43.004;23.052;2024-02-26T07:52:07;93394.44;;;8.55;75.65
8334;BME280;4204;43.004;23.052;2024-02-26T07:54:32;93395.00;;;8.64;72.82
8334;BME280;4204;43.004;23.052;2024-02-26T07:56:57;93391.63;;;8.70;73.70
8334;BME280;4204;43.004;23.052;2024-02-26T07:59:23;93394.16;;;8.83;72.13
8334;BME280;4204;43.004;23.052;2024-02-26T08:01:52;93384.69;;;8.77;72.80
8334;BME280;4204;43.004;23.052;2024-02-26T08:04:17;93393.91;;;8.91;70.98
8334;BME280;4204;43.004;23.052;2024-02-26T08:06:43;93384.06;;;8.95;71.06
8334;BME280;4204;43.004;23.052;2024-02-26T08:09:08;93387.75;;;9.06;68.60
8334;BME280;4204;43.004;23.052;2024-02-26T08:11:34;93389.09;;;9.15;69.63
8334;BME280;4204;43.004;23.052;2024-02-26T08:14:00;93387.88;;;9.24;68.95
8334;BME280;4204;43.004;23.052;2024-02-26T08:16:25;93392.59;;;9.27;70.29
8334;BME280;4204;43.004;23.052;2024-02-26T08:18:51;93395.56;;;9.31;70.31
8334;BME280;4204;43.004;23.052;2024-02-26T08:21:16;93398.09;;;9.37;69.64
8334;BME280;4204;43.004;23.052;2024-02-26T08:23:43;93388.75;;;9.43;69.66
8334;BME280;4204;43.004;23.052;2024-02-26T08:26:08;93388.53;;;9.51;67.58
8334;BME280;4204;43.004;23.052;2024-02-26T08:28:37;93401.34;;;9.57;67.72
8334;BME280;4204;43.004;23.052;2024-02-26T08:31:02;93386.50;;;9.60;68.27
8334;BME280;4204;43.004;23.052;2024-02-26T08:33:28;93400.66;;;9.75;68.52
8334;BME280;4204;43.004;23.052;2024-02-26T08:35:54;93403.41;;;9.80;67.25
8334;BME280;4204;43.004;23.052;2024-02-26T08:38:19;93404.94;;;9.88;67.00
8334;BME280;4204;43.004;23.052;2024-02-26T08:40:44;93404.50;;;9.91;66.98
8334;BME280;4204;43.004;23.052;2024-02-26T08:43:10;93402.88;;;9.97;65.81
8334;BME280;4204;43.004;23.052;2024-02-26T08:45:35;93406.84;;;9.99;65.77
8334;BME280;4204;43.004;23.052;2024-02-26T08:48:01;93394.31;;;10.03;67.56
8334;BME280;4204;43.004;23.052;2024-02-26T08:50:26;93393.69;;;10.07;67.38
8334;BME280;4204;43.004;23.052;2024-02-26T08:52:52;93400.00;;;10.11;67.12
8334;BME280;4204;43.004;23.052;2024-02-26T08:55:18;93402.72;;;10.16;65.66
8334;BME280;4204;43.004;23.052;2024-02-26T08:57:43;93398.16;;;10.18;66.65
8334;BME280;4204;43.004;23.052;2024-02-26T09:00:09;93400.13;;;10.23;67.12
8334;BME280;4204;43.004;23.052;2024-02-26T09:02:35;93386.84;;;10.19;65.77
8334;BME280;4204;43.004;23.052;2024-02-26T09:05:00;93390.41;;;10.25;66.35
8334;BME280;4204;43.004;23.052;2024-02-26T09:07:25;93389.56;;;10.31;65.87
8334;BME280;4204;43.004;23.052;2024-02-26T09:09:51;93382.19;;;10.35;65.94
8334;BME280;4204;43.004;23.052;2024-02-26T09:12:16;93381.72;;;10.44;65.70
8334;BME280;4204;43.004;23.052;2024-02-26T09:14:42;93383.03;;;10.54;65.33
8334;BME280;4204;43.004;23.052;2024-02-26T09:17:07;93378.16;;;10.64;64.63
8334;BME280;4204;43.004;23.052;2024-02-26T09:19:32;93376.31;;;10.71;63.66
8334;BME280;4204;43.004;23.052;2024-02-26T09:21:58;93372.88;;;10.77;63.44
8334;BME280;4204;43.004;23.052;2024-02-26T09:24:24;93375.81;;;10.80;62.49
8334;BME280;4204;43.004;23.052;2024-02-26T09:26:50;93389.28;;;10.82;63.74
8334;BME280;4204;43.004;23.052;2024-02-26T09:29:15;93372.38;;;10.87;63.44
8334;BME280;4204;43.004;23.052;2024-02-26T09:31:41;93390.06;;;11.01;63.35
8334;BME280;4204;43.004;23.052;2024-02-26T09:34:07;93376.41;;;11.12;63.66
8334;BME280;4204;43.004;23.052;2024-02-26T09:36:33;93371.44;;;11.18;62.53
8334;BME280;4204;43.004;23.052;2024-02-26T09:38:59;93368.34;;;11.27;60.16
8334;BME280;4204;43.004;23.052;2024-02-26T09:41:28;93376.63;;;11.29;62.75
8334;BME280;4204;43.004;23.052;2024-02-26T09:43:56;93373.75;;;11.37;61.46
8334;BME280;4204;43.004;23.052;2024-02-26T09:46:22;93374.44;;;11.44;62.39
8334;BME280;4204;43.004;23.052;2024-02-26T09:48:47;93360.66;;;11.51;60.72
8334;BME280;4204;43.004;23.052;2024-02-26T09:51:14;93361.81;;;11.55;62.05
8334;BME280;4204;43.004;23.052;2024-02-26T09:53:43;93357.09;;;11.63;59.73
8334;BME280;4204;43.004;23.052;2024-02-26T09:56:11;93348.69;;;11.68;60.31
8334;BME280;4204;43.004;23.052;2024-02-26T09:58:39;93348.38;;;11.76;61.25
8334;BME280;4204;43.004;23.052;2024-02-26T10:01:10;93349.22;;;11.88;59.56
8334;BME280;4204;43.004;23.052;2024-02-26T10:03:39;93337.31;;;11.87;59.26
8334;BME280;4204;43.004;23.052;2024-02-26T10:06:07;93343.09;;;12.01;59.07
8334;BME280;4204;43.004;23.052;2024-02-26T10:08:34;93319.50;;;11.97;57.95
8334;BME280;4204;43.004;23.052;2024-02-26T10:11:00;93340.97;;;12.09;56.28
8334;BME280;4204;43.004;23.052;2024-02-26T10:13:26;93297.00;;;11.86;57.51
8334;BME280;4204;43.004;23.052;2024-02-26T10:15:51;93340.06;;;12.16;57.56
8334;BME280;4204;43.004;23.052;2024-02-26T10:18:17;93325.44;;;12.21;56.71
8334;BME280;4204;43.004;23.052;2024-02-26T10:20:42;93332.53;;;12.26;56.81
8334;BME280;4204;43.004;23.052;2024-02-26T10:23:08;93329.03;;;12.32;56.46
8334;BME280;4204;43.004;23.052;2024-02-26T10:25:33;93334.88;;;12.39;57.01
8334;BME280;4204;43.004;23.052;2024-02-26T10:28:00;93332.97;;;12.46;55.71
8334;BME280;4204;43.004;23.052;2024-02-26T10:30:29;93322.16;;;12.49;56.53
8334;BME280;4204;43.004;23.052;2024-02-26T10:32:56;93321.16;;;12.50;55.20
8334;BME280;4204;43.004;23.052;2024-02-26T10:35:21;93321.25;;;12.55;55.39
8334;BME280;4204;43.004;23.052;2024-02-26T10:37:48;93323.06;;;12.55;55.47
8334;BME280;4204;43.004;23.052;2024-02-26T10:40:15;93322.50;;;12.64;55.11
8334;BME280;4204;43.004;23.052;2024-02-26T10:42:41;93329.59;;;12.69;55.30
8334;BME280;4204;43.004;23.052;2024-02-26T10:45:08;93321.59;;;12.70;55.05
8334;BME280;4204;43.004;23.052;2024-02-26T10:47:37;93323.72;;;12.73;54.84
8334;BME280;4204;43.004;23.052;2024-02-26T10:50:05;93333.38;;;12.78;54.40
8334;BME280;4204;43.004;23.052;2024-02-26T10:52:32;93319.69;;;12.78;54.97
8334;BME280;4204;43.004;23.052;2024-02-26T10:55:05;93323.38;;;12.82;56.09
8334;BME280;4204;43.004;23.052;2024-02-26T10:57:34;93321.25;;;12.79;55.95
8334;BME280;4204;43.004;23.052;2024-02-26T11:00:03;93326.06;;;12.87;54.16
8334;BME280;4204;43.004;23.052;2024-02-26T11:02:35;93315.16;;;12.85;54.30
8334;BME280;4204;43.004;23.052;2024-02-26T11:05:05;93320.09;;;12.86;54.48
8334;BME280;4204;43.004;23.052;2024-02-26T11:07:32;93313.91;;;12.87;55.29
8334;BME280;4204;43.004;23.052;2024-02-26T11:10:01;93316.81;;;12.91;53.79
8334;BME280;4204;43.004;23.052;2024-02-26T11:12:32;93315.25;;;12.90;53.92
8334;BME280;4204;43.004;23.052;2024-02-26T11:14:58;93314.94;;;12.86;53.67
8334;BME280;4204;43.004;23.052;2024-02-26T11:17:27;93312.56;;;12.85;53.97
8334;BME280;4204;43.004;23.052;2024-02-26T11:19:57;93311.00;;;12.84;53.58
8334;BME280;4204;43.004;23.052;2024-02-26T11:22:26;93303.47;;;12.82;54.50
8334;BME280;4204;43.004;23.052;2024-02-26T11:24:53;93308.19;;;12.85;54.17
8334;BME280;4204;43.004;23.052;2024-02-26T11:27:24;93303.94;;;12.79;54.55
8334;BME280;4204;43.004;23.052;2024-02-26T11:29:55;93293.25;;;12.76;54.14
8334;BME280;4204;43.004;23.052;2024-02-26T11:32:23;93307.84;;;12.82;55.08
8334;BME280;4204;43.004;23.052;2024-02-26T11:34:49;93311.00;;;12.84;54.68
8334;BME280;4204;43.004;23.052;2024-02-26T11:37:16;93302.00;;;12.86;55.19
8334;BME280;4204;43.004;23.052;2024-02-26T11:39:43;93303.25;;;12.84;54.18
8334;BME280;4204;43.004;23.052;2024-02-26T11:42:13;93302.09;;;12.91;55.33
8334;BME280;4204;43.004;23.052;2024-02-26T11:44:39;93299.28;;;12.93;54.91
8334;BME280;4204;43.004;23.052;2024-02-26T11:47:24;93297.16;;;12.90;53.90
8334;BME280;4204;43.004;23.052;2024-02-26T11:49:50;93286.69;;;12.85;54.29
8334;BME280;4204;43.004;23.052;2024-02-26T11:52:16;93300.28;;;12.92;54.92
8334;BME280;4204;43.004;23.052;2024-02-26T11:54:55;93290.97;;;12.91;53.33
8334;BME280;4204;43.004;23.052;2024-02-26T12:00:03;93297.16;;;12.90;52.53
8334;BME280;4204;43.004;23.052;2024-02-26T12:02:51;93296.47;;;12.94;52.49
8334;BME280;4204;43.004;23.052;2024-02-26T12:05:24;93298.50;;;12.92;52.52
8334;BME280;4204;43.004;23.052;2024-02-26T12:07:53;93291.41;;;12.88;51.60
8334;BME280;4204;43.004;23.052;2024-02-26T12:10:30;93292.53;;;12.92;53.41
8334;BME280;4204;43.004;23.052;2024-02-26T12:13:16;93289.25;;;12.96;51.44
8334;BME280;4204;43.004;23.052;2024-02-26T12:18:09;93294.28;;;13.03;51.47
8334;BME280;4204;43.004;23.052;2024-02-26T12:20:38;93305.19;;;13.05;52.19
8334;BME280;4204;43.004;23.052;2024-02-26T12:23:04;93299.47;;;13.03;51.02
8334;BME280;4204;43.004;23.052;2024-02-26T12:25:30;93282.69;;;13.05;50.76
8334;BME280;4204;43.004;23.052;2024-02-26T12:27:57;93295.16;;;13.09;51.51
8334;BME280;4204;43.004;23.052;2024-02-26T12:30:23;93288.19;;;13.09;50.54
8334;BME280;4204;43.004;23.052;2024-02-26T12:32:50;93283.56;;;13.11;52.28
8334;BME280;4204;43.004;23.052;2024-02-26T12:35:16;93291.22;;;13.18;51.60
8334;BME280;4204;43.004;23.052;2024-02-26T12:37:46;93287.47;;;13.25;50.53
8334;BME280;4204;43.004;23.052;2024-02-26T12:40:12;93289.81;;;13.27;51.30
8334;BME280;4204;43.004;23.052;2024-02-26T12:42:40;93290.94;;;13.31;51.68
8334;BME280;4204;43.004;23.052;2024-02-26T12:45:08;93289.13;;;13.31;50.91
8334;BME280;4204;43.004;23.052;2024-02-26T12:47:44;93287.78;;;13.29;51.14
8334;BME280;4204;43.004;23.052;2024-02-26T12:50:15;93290.00;;;13.37;51.30
8334;BME280;4204;43.004;23.052;2024-02-26T12:52:45;93282.47;;;13.35;50.17
8334;BME280;4204;43.004;23.052;2024-02-26T12:55:14;93294.97;;;13.39;50.16
8334;BME280;4204;43.004;23.052;2024-02-26T12:57:41;93285.72;;;13.43;50.43
8334;BME280;4204;43.004;23.052;2024-02-26T13:00:12;93297.09;;;13.42;50.20
8334;BME280;4204;43.004;23.052;2024-02-26T13:02:38;93296.31;;;13.41;50.53
8334;BME280;4204;43.004;23.052;2024-02-26T13:05:06;93296.88;;;13.43;50.22
8334;BME280;4204;43.004;23.052;2024-02-26T13:07:32;93294.03;;;13.45;50.87
8334;BME280;4204;43.004;23.052;2024-02-26T13:09:58;93303.38;;;13.46;50.61
8334;BME280;4204;43.004;23.052;2024-02-26T13:12:24;93295.84;;;13.44;51.09
8334;BME280;4204;43.004;23.052;2024-02-26T13:15:03;93298.28;;;13.51;50.27
8334;BME280;4204;43.004;23.052;2024-02-26T13:17:32;93299.44;;;13.43;49.35